createdAt,value
2017-05-15T00:00:13.432Z,13.78
2017-05-15T00:01:24.445Z,13.83
2017-05-15T00:02:35.646Z,13.88
2017-05-15T00:03:46.863Z,13.81
2017-05-15T00:04:58.338Z,13.84
2017-05-15T00:06:09.542Z,13.79
2017-05-15T00:07:20.544Z,13.87
2017-05-15T00:08:31.761Z,13.84
2017-05-15T00:09:42.766Z,13.91
2017-05-15T00:10:53.980Z,13.9
2017-05-15T00:12:05.035Z,13.87
2017-05-15T00:13:16.030Z,13.83
2017-05-15T00:14:27.286Z,13.88
2017-05-15T00:15:38.289Z,13.87
2017-05-15T00:16:49.296Z,13.86
2017-05-15T00:18:00.301Z,13.87
2017-05-15T00:19:11.320Z,13.9
2017-05-15T00:20:22.333Z,13.84
2017-05-15T00:21:33.323Z,13.84
2017-05-15T00:22:44.329Z,13.87
2017-05-15T00:23:55.348Z,13.81
2017-05-15T00:25:06.402Z,13.78
2017-05-15T00:26:17.413Z,13.79
2017-05-15T00:27:28.429Z,13.81
2017-05-15T00:28:39.431Z,13.84
2017-05-15T00:29:50.440Z,13.91
2017-05-15T00:31:01.448Z,13.78
2017-05-15T00:32:12.457Z,13.7
2017-05-15T00:33:23.462Z,13.73
2017-05-15T00:34:34.681Z,13.73
2017-05-15T00:35:45.746Z,13.76
2017-05-15T00:36:56.757Z,13.76
2017-05-15T00:38:07.959Z,13.68
2017-05-15T00:39:19.174Z,13.73
2017-05-15T00:40:30.189Z,13.57
2017-05-15T00:41:41.199Z,13.6
2017-05-15T00:42:52.245Z,13.6
2017-05-15T00:44:03.265Z,13.62
2017-05-15T00:45:14.325Z,13.55
2017-05-15T00:46:25.338Z,13.62
2017-05-15T00:47:36.356Z,13.62
2017-05-15T00:48:47.373Z,13.45
2017-05-15T00:49:58.382Z,13.45
2017-05-15T00:51:09.399Z,13.42
2017-05-15T00:52:20.402Z,13.44
2017-05-15T00:53:31.411Z,13.35
2017-05-15T00:54:42.436Z,13.32
2017-05-15T00:55:53.492Z,13.27
2017-05-15T00:57:04.495Z,13.25
2017-05-15T00:58:15.508Z,13.17
2017-05-15T00:59:26.520Z,13.14
2017-05-15T01:00:37.522Z,13.19
2017-05-15T01:01:48.533Z,13.17
2017-05-15T01:02:59.558Z,13.16
2017-05-15T01:04:10.578Z,13.2
2017-05-15T01:05:21.595Z,13.19
2017-05-15T01:06:32.595Z,13.21
2017-05-15T01:07:43.794Z,13.2
2017-05-15T01:08:54.806Z,13.16
2017-05-15T01:10:05.820Z,13.19
2017-05-15T01:11:16.828Z,13.2
2017-05-15T01:12:27.836Z,13.27
2017-05-15T01:13:39.087Z,13.28
2017-05-15T01:14:50.097Z,13.2
2017-05-15T01:16:01.111Z,13.21
2017-05-15T01:17:12.331Z,13.25
2017-05-15T01:18:23.340Z,13.32
2017-05-15T01:19:34.571Z,13.24
2017-05-15T01:20:45.591Z,13.14
2017-05-15T01:21:56.834Z,13.17
2017-05-15T01:23:07.895Z,13.2
2017-05-15T01:24:18.906Z,13.19
2017-05-15T01:25:29.913Z,13.13
2017-05-15T01:26:41.115Z,13.1
2017-05-15T01:27:52.129Z,13.11
2017-05-15T01:29:03.151Z,12.99
2017-05-15T01:30:14.160Z,13.03
2017-05-15T01:31:25.357Z,12.95
2017-05-15T01:32:36.354Z,12.91
2017-05-15T01:33:47.855Z,12.86
2017-05-15T01:34:58.863Z,12.91
2017-05-15T01:36:09.887Z,12.89
2017-05-15T01:37:20.892Z,12.94
2017-05-15T01:38:31.920Z,12.84
2017-05-15T01:39:42.931Z,12.81
2017-05-15T01:40:53.940Z,12.83
2017-05-15T01:42:04.939Z,12.77
2017-05-15T01:43:15.949Z,12.77
2017-05-15T01:44:26.998Z,12.69
2017-05-15T01:45:38.015Z,12.7
2017-05-15T01:46:49.019Z,12.63
2017-05-15T01:48:00.035Z,12.53
2017-05-15T01:49:11.055Z,12.59
2017-05-15T01:50:22.065Z,12.59
2017-05-15T01:51:33.068Z,12.58
2017-05-15T01:52:44.081Z,12.48
2017-05-15T01:53:55.088Z,12.45
2017-05-15T01:55:06.141Z,12.4
2017-05-15T01:56:17.406Z,12.47
2017-05-15T01:57:28.418Z,12.36
2017-05-15T01:58:39.430Z,12.33
2017-05-15T01:59:50.436Z,12.31
2017-05-15T02:01:01.445Z,12.29
2017-05-15T02:02:12.642Z,12.34
2017-05-15T02:03:23.657Z,12.37
2017-05-15T02:04:34.668Z,12.26
2017-05-15T02:05:45.727Z,12.19
2017-05-15T02:06:56.726Z,12.2
2017-05-15T02:08:07.742Z,12.08
2017-05-15T02:09:18.761Z,12.15
2017-05-15T02:10:30.027Z,12.13
2017-05-15T02:11:41.037Z,12.08
2017-05-15T02:12:52.037Z,12.04
2017-05-15T02:14:03.246Z,11.98
2017-05-15T02:15:14.448Z,11.86
2017-05-15T02:16:25.669Z,11.86
2017-05-15T02:17:36.731Z,11.84
2017-05-15T02:18:47.752Z,11.94
2017-05-15T02:19:58.760Z,11.84
2017-05-15T02:21:09.769Z,11.81
2017-05-15T02:22:20.776Z,11.81
2017-05-15T02:23:31.843Z,11.82
2017-05-15T02:24:42.860Z,11.75
2017-05-15T02:25:54.059Z,11.88
2017-05-15T02:27:05.125Z,11.82
2017-05-15T02:28:16.334Z,11.86
2017-05-15T02:29:27.345Z,11.88
2017-05-15T02:30:38.344Z,11.85
2017-05-15T02:31:49.541Z,11.78
2017-05-15T02:33:00.754Z,11.82
2017-05-15T02:34:11.782Z,11.75
2017-05-15T02:35:22.803Z,11.68
2017-05-15T02:36:33.810Z,11.64
2017-05-15T02:37:44.861Z,11.59
2017-05-15T02:38:55.867Z,11.66
2017-05-15T02:40:06.870Z,11.57
2017-05-15T02:41:18.073Z,11.49
2017-05-15T02:42:29.079Z,11.51
2017-05-15T02:43:40.072Z,11.42
2017-05-15T02:44:51.090Z,11.42
2017-05-15T02:46:02.101Z,11.38
2017-05-15T02:47:13.112Z,11.34
2017-05-15T02:48:24.171Z,11.34
2017-05-15T02:49:35.172Z,11.26
2017-05-15T02:50:46.191Z,11.34
2017-05-15T02:51:57.191Z,11.42
2017-05-15T02:53:08.201Z,11.42
2017-05-15T02:54:19.212Z,11.31
2017-05-15T02:55:30.414Z,11.21
2017-05-15T02:56:41.430Z,11.3
2017-05-15T02:57:52.433Z,11.31
2017-05-15T02:59:03.494Z,11.26
2017-05-15T03:00:14.707Z,11.23
2017-05-15T03:01:25.729Z,11.13
2017-05-15T03:02:36.734Z,11.13
2017-05-15T03:03:47.749Z,11.13
2017-05-15T03:04:58.764Z,11.12
2017-05-15T03:06:09.983Z,11.12
2017-05-15T03:07:20.992Z,11.1
2017-05-15T03:08:31.998Z,11.08
2017-05-15T03:09:43.062Z,11.08
2017-05-15T03:10:54.270Z,11.08
2017-05-15T03:12:05.480Z,10.98
2017-05-15T03:13:16.483Z,10.98
2017-05-15T03:14:27.494Z,11.08
2017-05-15T03:15:38.563Z,11.02
2017-05-15T03:16:49.771Z,11.03
2017-05-15T03:18:00.991Z,10.91
2017-05-15T03:19:12.003Z,10.91
2017-05-15T03:20:23.006Z,10.92
2017-05-15T03:21:34.011Z,10.88
2017-05-15T03:22:45.030Z,10.85
2017-05-15T03:23:56.034Z,10.83
2017-05-15T03:25:07.098Z,10.72
2017-05-15T03:26:18.304Z,10.75
2017-05-15T03:27:29.373Z,10.7
2017-05-15T03:28:40.584Z,10.7
2017-05-15T03:29:51.795Z,10.66
2017-05-15T03:31:02.802Z,10.65
2017-05-15T03:32:13.805Z,10.63
2017-05-15T03:33:24.815Z,10.59
2017-05-15T03:34:35.828Z,10.55
2017-05-15T03:35:47.043Z,10.55
2017-05-15T03:36:58.098Z,10.46
2017-05-15T03:38:09.310Z,10.47
2017-05-15T03:39:20.339Z,10.35
2017-05-15T03:40:31.549Z,10.42
2017-05-15T03:41:42.560Z,10.42
2017-05-15T03:42:53.561Z,10.44
2017-05-15T03:44:04.573Z,10.47
2017-05-15T03:45:15.583Z,10.44
2017-05-15T03:46:26.589Z,10.46
2017-05-15T03:47:37.646Z,10.36
2017-05-15T03:48:48.664Z,10.39
2017-05-15T03:49:59.688Z,10.38
2017-05-15T03:51:10.888Z,10.36
2017-05-15T03:52:21.883Z,10.33
2017-05-15T03:53:32.906Z,10.38
2017-05-15T03:54:43.925Z,10.31
2017-05-15T03:55:54.947Z,10.14
2017-05-15T03:57:06.145Z,10.07
2017-05-15T03:58:17.403Z,10.2
2017-05-15T03:59:28.633Z,10.15
2017-05-15T04:00:39.644Z,10.11
2017-05-15T04:01:50.662Z,10.14
2017-05-15T04:03:01.661Z,10.18
2017-05-15T04:04:12.669Z,10.21
2017-05-15T04:05:23.683Z,10.25
2017-05-15T04:06:34.703Z,10.31
2017-05-15T04:07:45.914Z,10.41
2017-05-15T04:08:56.973Z,10.44
2017-05-15T04:10:07.987Z,10.41
2017-05-15T04:11:18.993Z,10.36
2017-05-15T04:12:29.992Z,10.42
2017-05-15T04:13:40.997Z,10.47
2017-05-15T04:14:52.026Z,10.52
2017-05-15T04:16:03.230Z,10.75
2017-05-15T04:17:14.241Z,10.79
2017-05-15T04:18:25.256Z,11.08
2017-05-15T04:19:36.312Z,11.2
2017-05-15T04:20:47.326Z,11.38
2017-05-15T04:21:58.326Z,11.57
2017-05-15T04:23:09.340Z,11.89
2017-05-15T04:24:20.562Z,12.23
2017-05-15T04:25:31.564Z,12.38
2017-05-15T04:26:42.567Z,12.73
2017-05-15T04:27:53.571Z,12.89
2017-05-15T04:29:04.575Z,13.13
2017-05-15T04:30:15.586Z,13.21
2017-05-15T04:31:26.594Z,13.66
2017-05-15T04:32:37.603Z,13.81
2017-05-15T04:33:48.820Z,13.88
2017-05-15T04:35:00.044Z,14.03
2017-05-15T04:36:11.104Z,14.02
2017-05-15T04:37:22.107Z,14.15
2017-05-15T04:38:33.117Z,14.11
2017-05-15T04:39:44.332Z,14.26
2017-05-15T04:40:55.543Z,14.39
2017-05-15T04:42:06.550Z,14.56
2017-05-15T04:43:17.556Z,14.75
2017-05-15T04:44:28.798Z,14.86
2017-05-15T04:45:40.016Z,14.82
2017-05-15T04:46:51.082Z,14.86
2017-05-15T04:48:02.107Z,14.85
2017-05-15T04:49:13.115Z,14.85
2017-05-15T04:50:24.333Z,14.82
2017-05-15T04:51:35.339Z,14.82
2017-05-15T04:52:46.559Z,14.83
2017-05-15T04:53:57.581Z,14.97
2017-05-15T04:55:08.805Z,15.15
2017-05-15T04:56:19.806Z,15.18
2017-05-15T04:57:30.867Z,15.26
2017-05-15T04:58:41.886Z,15.34
2017-05-15T04:59:53.101Z,15.31
2017-05-15T05:01:04.313Z,15.34
2017-05-15T05:02:15.524Z,15.49
2017-05-15T05:03:26.547Z,15.31
2017-05-15T05:04:37.614Z,15.35
2017-05-15T05:05:48.626Z,15.37
2017-05-15T05:06:59.641Z,15.31
2017-05-15T05:08:10.703Z,15.25
2017-05-15T05:09:21.708Z,15.23
2017-05-15T05:10:32.717Z,15.15
2017-05-15T05:11:43.728Z,15.1
2017-05-15T05:12:54.735Z,15.18
2017-05-15T05:14:05.759Z,15.15
2017-05-15T05:15:16.982Z,15.18
2017-05-15T05:16:27.993Z,15.3
2017-05-15T05:17:39.001Z,15.47
2017-05-15T05:18:50.282Z,15.6
2017-05-15T05:20:01.298Z,15.68
2017-05-15T05:21:12.315Z,15.65
2017-05-15T05:22:23.519Z,15.51
2017-05-15T05:23:34.728Z,15.38
2017-05-15T05:24:45.954Z,15.18
2017-05-15T05:25:56.979Z,15.1
2017-05-15T05:27:07.998Z,14.94
2017-05-15T05:28:19.015Z,14.93
2017-05-15T05:29:30.232Z,14.77
2017-05-15T05:30:41.239Z,14.64
2017-05-15T05:31:52.256Z,14.7
2017-05-15T05:33:03.261Z,14.56
2017-05-15T05:34:14.284Z,14.6
2017-05-15T05:35:25.307Z,14.64
2017-05-15T05:36:36.315Z,14.57
2017-05-15T05:37:47.522Z,14.53
2017-05-15T05:38:58.537Z,14.52
2017-05-15T05:40:09.611Z,14.57
2017-05-15T05:41:20.821Z,14.49
2017-05-15T05:42:31.831Z,14.53
2017-05-15T05:43:43.050Z,14.51
2017-05-15T05:44:54.068Z,14.48
2017-05-15T05:46:05.075Z,14.56
2017-05-15T05:47:16.281Z,14.59
2017-05-15T05:48:27.314Z,14.49
2017-05-15T05:49:38.535Z,14.53
2017-05-15T05:50:49.592Z,14.46
2017-05-15T05:52:00.610Z,14.45
2017-05-15T05:53:11.605Z,14.45
2017-05-15T05:54:22.611Z,14.48
2017-05-15T05:55:33.839Z,14.56
2017-05-15T05:56:44.849Z,14.49
2017-05-15T05:57:55.854Z,14.69
2017-05-15T05:59:06.873Z,14.82
2017-05-15T06:00:18.088Z,15.15
2017-05-15T06:01:29.167Z,15.44
2017-05-15T06:02:40.222Z,15.77
2017-05-15T06:03:51.238Z,16.04
2017-05-15T06:05:02.454Z,16.44
2017-05-15T06:06:13.722Z,16.67
2017-05-15T06:07:24.740Z,17
2017-05-15T06:08:36.158Z,17.43
2017-05-15T06:09:47.170Z,17.62
2017-05-15T06:10:58.186Z,17.86
2017-05-15T06:12:09.466Z,18.13
2017-05-15T06:13:20.696Z,18.44
2017-05-15T06:14:31.915Z,18.53
2017-05-15T06:15:42.931Z,18.74
2017-05-15T06:16:53.956Z,18.84
2017-05-15T06:18:04.972Z,19.09
2017-05-15T06:19:16.012Z,19.27
2017-05-15T06:20:27.251Z,19.57
2017-05-15T06:21:38.270Z,19.68
2017-05-15T06:22:49.352Z,19.79
2017-05-15T06:24:00.379Z,19.97
2017-05-15T06:25:11.416Z,20.16
2017-05-15T06:26:22.450Z,20.25
2017-05-15T06:27:33.670Z,20.25
2017-05-15T06:28:44.706Z,20.44
2017-05-15T06:29:55.724Z,20.42
2017-05-15T06:31:07.145Z,20.64
2017-05-15T06:32:18.162Z,20.85
2017-05-15T06:33:29.181Z,21.01
2017-05-15T06:34:40.206Z,21.12
2017-05-15T06:35:51.219Z,21.33
2017-05-15T06:37:02.441Z,21.59
2017-05-15T06:38:13.467Z,21.68
2017-05-15T06:39:24.482Z,21.77
2017-05-15T06:40:35.567Z,21.8
2017-05-15T06:41:46.794Z,21.86
2017-05-15T06:42:57.826Z,21.94
2017-05-15T06:44:09.260Z,22.18
2017-05-15T06:45:20.310Z,22.27
2017-05-15T06:46:31.349Z,22.27
2017-05-15T06:47:42.375Z,22.3
2017-05-15T06:48:53.402Z,22.45
2017-05-15T06:50:04.478Z,22.69
2017-05-15T06:51:15.492Z,22.86
2017-05-15T06:52:26.511Z,23.04
2017-05-15T06:53:37.524Z,22.91
2017-05-15T06:54:48.763Z,22.85
2017-05-15T06:55:59.995Z,22.73
2017-05-15T06:57:11.027Z,22.73
2017-05-15T06:58:22.098Z,22.84
2017-05-15T06:59:33.128Z,22.86
2017-05-15T07:00:44.201Z,22.99
2017-05-15T07:01:55.227Z,23.14
2017-05-15T07:03:06.251Z,23.18
2017-05-15T07:04:17.467Z,23.22
2017-05-15T07:05:28.497Z,23.25
2017-05-15T07:06:39.533Z,23.32
2017-05-15T07:07:50.763Z,23.47
2017-05-15T07:09:01.794Z,23.56
2017-05-15T07:10:12.826Z,23.6
2017-05-15T07:11:23.897Z,23.44
2017-05-15T07:12:34.933Z,23.55
2017-05-15T07:13:45.971Z,23.53
2017-05-15T07:14:56.996Z,23.57
2017-05-15T07:16:08.005Z,23.55
2017-05-15T07:17:19.028Z,23.47
2017-05-15T07:18:30.058Z,23.6
2017-05-15T07:19:41.095Z,23.52
2017-05-15T07:20:52.116Z,23.5
2017-05-15T07:22:03.199Z,23.38
2017-05-15T07:23:14.227Z,23.32
2017-05-15T07:24:25.248Z,23.14
2017-05-15T07:25:36.474Z,23.16
2017-05-15T07:26:47.517Z,23.25
2017-05-15T07:27:58.537Z,23.48
2017-05-15T07:29:09.553Z,23.48
2017-05-15T07:30:20.584Z,23.47
2017-05-15T07:31:31.612Z,23.79
2017-05-15T07:32:42.691Z,23.94
2017-05-15T07:33:53.926Z,24.08
2017-05-15T07:35:04.959Z,24.34
2017-05-15T07:36:15.994Z,24.59
2017-05-15T07:37:27.025Z,24.69
2017-05-15T07:38:38.265Z,24.61
2017-05-15T07:39:49.496Z,24.48
2017-05-15T07:41:00.519Z,24.27
2017-05-15T07:42:11.550Z,24.22
2017-05-15T07:43:22.577Z,24.26
2017-05-15T07:44:33.663Z,24.11
2017-05-15T07:45:44.688Z,23.89
2017-05-15T07:46:55.738Z,23.85
2017-05-15T07:48:06.764Z,24.04
2017-05-15T07:49:17.790Z,24.26
2017-05-15T07:50:28.817Z,24.54
2017-05-15T07:51:39.841Z,24.45
2017-05-15T07:52:51.073Z,24.33
2017-05-15T07:54:02.155Z,24.33
2017-05-15T07:55:13.188Z,24.42
2017-05-15T07:56:24.213Z,24.32
2017-05-15T07:57:35.230Z,24.3
2017-05-15T07:58:46.314Z,24.48
2017-05-15T07:59:57.743Z,24.49
2017-05-15T08:01:08.767Z,24.45
2017-05-15T08:02:19.803Z,24.74
2017-05-15T08:03:30.843Z,24.87
2017-05-15T08:04:41.921Z,24.97
2017-05-15T08:05:52.949Z,24.77
2017-05-15T08:07:03.986Z,24.55
2017-05-15T08:08:15.014Z,24.54
2017-05-15T08:09:26.244Z,24.56
2017-05-15T08:10:37.278Z,24.74
2017-05-15T08:11:48.313Z,24.7
2017-05-15T08:12:59.342Z,24.92
2017-05-15T08:14:10.419Z,25.08
2017-05-15T08:15:21.701Z,25.15
2017-05-15T08:16:32.769Z,25.22
2017-05-15T08:17:43.798Z,25.27
2017-05-15T08:18:55.040Z,25.37
2017-05-15T08:20:06.073Z,25.48
2017-05-15T08:21:17.099Z,25.62
2017-05-15T08:22:28.128Z,25.85
2017-05-15T08:23:39.364Z,25.82
2017-05-15T08:24:50.603Z,25.91
2017-05-15T08:26:01.687Z,26.01
2017-05-15T08:27:12.714Z,25.97
2017-05-15T08:28:23.750Z,25.59
2017-05-15T08:29:34.781Z,25.48
2017-05-15T08:30:45.819Z,25.24
2017-05-15T08:31:56.946Z,25.49
2017-05-15T08:33:08.173Z,25.67
2017-05-15T08:34:19.210Z,25.76
2017-05-15T08:35:30.247Z,25.97
2017-05-15T08:36:41.286Z,26.24
2017-05-15T08:37:52.311Z,26.37
2017-05-15T08:39:03.339Z,26.27
2017-05-15T08:40:14.374Z,25.99
2017-05-15T08:41:25.391Z,25.74
2017-05-15T08:42:36.424Z,25.3
2017-05-15T08:43:47.655Z,25.26
2017-05-15T08:44:58.690Z,25.33
2017-05-15T08:46:09.706Z,25.39
2017-05-15T08:47:20.731Z,25.34
2017-05-15T08:48:31.760Z,25.51
2017-05-15T08:49:42.835Z,25.69
2017-05-15T08:50:53.853Z,25.89
2017-05-15T08:52:04.886Z,26.19
2017-05-15T08:53:15.929Z,26.27
2017-05-15T08:54:26.977Z,26.07
2017-05-15T08:55:38.015Z,25.69
2017-05-15T08:56:49.051Z,25.74
2017-05-15T08:58:00.093Z,25.84
2017-05-15T08:59:11.175Z,26.03
2017-05-15T09:00:22.206Z,26.34
2017-05-15T09:01:33.237Z,26.41
2017-05-15T09:02:44.273Z,26.39
2017-05-15T09:03:55.305Z,26.35
2017-05-15T09:05:06.330Z,26.56
2017-05-15T09:06:17.347Z,26.63
2017-05-15T09:07:28.374Z,26.64
2017-05-15T09:08:39.400Z,26.47
2017-05-15T09:09:50.488Z,26.37
2017-05-15T09:11:01.517Z,26.19
2017-05-15T09:12:12.546Z,26.27
2017-05-15T09:13:23.614Z,26.27
2017-05-15T09:14:34.656Z,26.26
2017-05-15T09:15:45.882Z,26.19
2017-05-15T09:16:56.904Z,26.24
2017-05-15T09:18:07.939Z,26.47
2017-05-15T09:19:18.972Z,26.47
2017-05-15T09:20:30.203Z,26.54
2017-05-15T09:21:41.234Z,26.79
2017-05-15T09:22:52.271Z,27.09
2017-05-15T09:24:03.309Z,27.19
2017-05-15T09:25:14.587Z,27.45
2017-05-15T09:26:25.634Z,27.52
2017-05-15T09:27:36.677Z,27.69
2017-05-15T09:28:48.101Z,27.81
2017-05-15T09:29:59.126Z,27.93
2017-05-15T09:31:10.162Z,27.9
2017-05-15T09:32:21.191Z,28.12
2017-05-15T09:33:32.425Z,28.18
2017-05-15T09:34:43.443Z,28.14
2017-05-15T09:35:54.531Z,28.08
2017-05-15T09:37:05.560Z,27.99
2017-05-15T09:38:16.646Z,27.81
2017-05-15T09:39:27.676Z,27.8
2017-05-15T09:40:38.920Z,27.84
2017-05-15T09:41:50.201Z,27.8
2017-05-15T09:43:01.237Z,27.69
2017-05-15T09:44:12.475Z,27.69
2017-05-15T09:45:23.698Z,27.37
2017-05-15T09:46:34.929Z,27.34
2017-05-15T09:47:46.164Z,27.31
2017-05-15T09:48:57.199Z,27.45
2017-05-15T09:50:08.229Z,27.45
2017-05-15T09:51:19.259Z,27.71
2017-05-15T09:52:30.287Z,27.8
2017-05-15T09:53:41.360Z,28.01
2017-05-15T09:54:52.403Z,28.27
2017-05-15T09:56:03.430Z,27.94
2017-05-15T09:57:14.669Z,27.79
2017-05-15T09:58:25.694Z,27.68
2017-05-15T09:59:36.726Z,27.55
2017-05-15T10:00:47.754Z,27.53
2017-05-15T10:01:58.782Z,27.19
2017-05-15T10:03:10.101Z,27.3
2017-05-15T10:04:21.140Z,27.49
2017-05-15T10:05:32.165Z,27.65
2017-05-15T10:06:43.400Z,27.8
2017-05-15T10:07:54.626Z,28.05
2017-05-15T10:09:05.708Z,28.26
2017-05-15T10:10:16.925Z,28.41
2017-05-15T10:11:27.952Z,28.42
2017-05-15T10:12:39.174Z,28.38
2017-05-15T10:13:50.262Z,28.23
2017-05-15T10:15:01.302Z,28.17
2017-05-15T10:16:12.337Z,28.17
2017-05-15T10:17:23.572Z,28.18
2017-05-15T10:18:34.786Z,28.28
2017-05-15T10:19:45.823Z,28.35
2017-05-15T10:20:56.859Z,28.36
2017-05-15T10:22:07.885Z,28.28
2017-05-15T10:23:18.958Z,28.16
2017-05-15T10:24:30.439Z,28.09
2017-05-15T10:25:41.464Z,28.2
2017-05-15T10:26:52.690Z,28.38
2017-05-15T10:28:03.733Z,28.53
2017-05-15T10:29:14.769Z,28.58
2017-05-15T10:30:25.789Z,28.38
2017-05-15T10:31:36.826Z,28.28
2017-05-15T10:32:47.861Z,28.16
2017-05-15T10:33:58.895Z,27.83
2017-05-15T10:35:09.975Z,27.8
2017-05-15T10:36:21.006Z,27.64
2017-05-15T10:37:32.030Z,27.04
2017-05-15T10:38:43.279Z,27
2017-05-15T10:39:54.298Z,27.06
2017-05-15T10:41:05.381Z,27.18
2017-05-15T10:42:16.410Z,27.01
2017-05-15T10:43:27.647Z,26.94
2017-05-15T10:44:38.676Z,27.09
2017-05-15T10:45:49.905Z,27.34
2017-05-15T10:47:00.931Z,27.69
2017-05-15T10:48:11.966Z,27.79
2017-05-15T10:49:23.052Z,27.65
2017-05-15T10:50:34.281Z,27.55
2017-05-15T10:51:45.319Z,27.57
2017-05-15T10:52:56.543Z,27.11
2017-05-15T10:54:07.576Z,26.87
2017-05-15T10:55:18.608Z,26.69
2017-05-15T10:56:29.641Z,26.89
2017-05-15T10:57:40.705Z,26.94
2017-05-15T10:58:51.734Z,26.97
2017-05-15T11:00:02.764Z,27.31
2017-05-15T11:01:13.776Z,27.49
2017-05-15T11:02:24.998Z,27.72
2017-05-15T11:03:36.031Z,28.05
2017-05-15T11:04:47.063Z,28.2
2017-05-15T11:05:58.290Z,28.26
2017-05-15T11:07:09.327Z,28.41
2017-05-15T11:08:20.410Z,28.3
2017-05-15T11:09:31.423Z,28.38
2017-05-15T11:10:42.447Z,28.55
2017-05-15T11:11:53.468Z,28.82
2017-05-15T11:13:04.712Z,28.51
2017-05-15T11:14:15.939Z,28.58
2017-05-15T11:15:26.970Z,28.76
2017-05-15T11:16:38.002Z,28.83
2017-05-15T11:17:49.043Z,28.97
2017-05-15T11:19:00.125Z,29.08
2017-05-15T11:20:11.149Z,29.14
2017-05-15T11:21:22.169Z,29.28
2017-05-15T11:22:33.389Z,29.36
2017-05-15T11:23:44.614Z,29.5
2017-05-15T11:24:55.646Z,29.4
2017-05-15T11:26:06.711Z,29.52
2017-05-15T11:27:17.738Z,29.42
2017-05-15T11:28:28.767Z,29.45
2017-05-15T11:29:39.842Z,29.65
2017-05-15T11:30:50.855Z,29.66
2017-05-15T11:32:01.874Z,29.43
2017-05-15T11:33:12.912Z,29.29
2017-05-15T11:34:23.933Z,29.2
2017-05-15T11:35:34.950Z,29.05
2017-05-15T11:36:45.968Z,29.11
2017-05-15T11:37:56.999Z,29.08
2017-05-15T11:39:08.024Z,29.05
2017-05-15T11:40:19.044Z,28.95
2017-05-15T11:41:30.080Z,29.1
2017-05-15T11:42:41.104Z,29.13
2017-05-15T11:43:52.136Z,29.02
2017-05-15T11:45:03.175Z,29.08
2017-05-15T11:46:14.449Z,29.11
2017-05-15T11:47:25.691Z,28.91
2017-05-15T11:48:36.722Z,28.76
2017-05-15T11:49:47.751Z,28.85
2017-05-15T11:50:58.974Z,28.85
2017-05-15T11:52:09.997Z,28.82
2017-05-15T11:53:21.455Z,28.8
2017-05-15T11:54:32.491Z,28.73
2017-05-15T11:55:43.923Z,28.73
2017-05-15T11:56:55.154Z,28.43
2017-05-15T11:58:06.180Z,28.38
2017-05-15T11:59:17.201Z,28.53
2017-05-15T12:00:28.225Z,28.68
2017-05-15T12:01:39.301Z,28.86
2017-05-15T12:02:50.326Z,29.02
2017-05-15T12:04:01.552Z,29.11
2017-05-15T12:05:12.581Z,29.2
2017-05-15T12:06:23.650Z,29.35
2017-05-15T12:07:34.667Z,29.42
2017-05-15T12:08:45.875Z,29.58
2017-05-15T12:09:56.899Z,29.69
2017-05-15T12:11:07.959Z,29.6
2017-05-15T12:12:19.025Z,29.26
2017-05-15T12:13:30.051Z,29.24
2017-05-15T12:14:41.283Z,29.3
2017-05-15T12:15:52.302Z,29.32
2017-05-15T12:17:03.316Z,29.45
2017-05-15T12:18:14.396Z,29.24
2017-05-15T12:19:25.424Z,29.2
2017-05-15T12:20:36.447Z,29.23
2017-05-15T12:21:47.459Z,29.3
2017-05-15T12:22:58.705Z,29.42
2017-05-15T12:24:09.766Z,29.52
2017-05-15T12:25:20.785Z,29.33
2017-05-15T12:26:31.804Z,29.2
2017-05-15T12:27:43.022Z,29.1
2017-05-15T12:28:54.034Z,28.82
2017-05-15T12:30:05.311Z,28.72
2017-05-15T12:31:16.544Z,28.63
2017-05-15T12:32:27.570Z,28.7
2017-05-15T12:33:38.594Z,28.67
2017-05-15T12:34:49.820Z,28.51
2017-05-15T12:36:01.103Z,28.23
2017-05-15T12:37:12.320Z,28.17
2017-05-15T12:38:23.341Z,28.31
2017-05-15T12:39:34.366Z,28.36
2017-05-15T12:40:45.588Z,28.43
2017-05-15T12:41:56.665Z,28.39
2017-05-15T12:43:07.691Z,28.38
2017-05-15T12:44:18.901Z,28.2
2017-05-15T12:45:30.122Z,28.17
2017-05-15T12:46:41.154Z,28.35
2017-05-15T12:47:52.235Z,28.27
2017-05-15T12:49:03.251Z,28.45
2017-05-15T12:50:14.274Z,28.57
2017-05-15T12:51:25.310Z,28.73
2017-05-15T12:52:36.339Z,28.43
2017-05-15T12:53:47.821Z,28.43
2017-05-15T12:54:58.847Z,28.51
2017-05-15T12:56:09.875Z,28.3
2017-05-15T12:57:21.096Z,28.21
2017-05-15T12:58:32.122Z,28.23
2017-05-15T12:59:43.190Z,28.17
2017-05-15T13:00:54.204Z,28.17
2017-05-15T13:02:05.242Z,28.18
2017-05-15T13:03:16.273Z,27.94
2017-05-15T13:04:27.302Z,27.93
2017-05-15T13:05:38.365Z,27.8
2017-05-15T13:06:49.388Z,27.68
2017-05-15T13:08:00.409Z,27.68
2017-05-15T13:09:11.430Z,27.53
2017-05-15T13:10:22.448Z,27.57
2017-05-15T13:11:33.538Z,26.89
2017-05-15T13:12:45.165Z,26.63
2017-05-15T13:13:56.390Z,26.23
2017-05-15T13:15:07.412Z,26.09
2017-05-15T13:16:18.430Z,25.91
2017-05-15T13:17:29.491Z,25.86
2017-05-15T13:18:40.522Z,25.57
2017-05-15T13:19:51.539Z,25.38
2017-05-15T13:21:02.552Z,25.49
2017-05-15T13:22:13.574Z,25.56
2017-05-15T13:23:24.643Z,25.82
2017-05-15T13:24:35.660Z,25.93
2017-05-15T13:25:46.672Z,25.93
2017-05-15T13:26:57.699Z,26.03
2017-05-15T13:28:08.724Z,26.3
2017-05-15T13:29:19.987Z,26.17
2017-05-15T13:30:31.004Z,26.17
2017-05-15T13:31:42.026Z,26.07
2017-05-15T13:32:53.055Z,25.89
2017-05-15T13:34:04.076Z,25.76
2017-05-15T13:35:15.345Z,25.6
2017-05-15T13:36:26.365Z,25.57
2017-05-15T13:37:37.591Z,25.64
2017-05-15T13:38:48.617Z,25.67
2017-05-15T13:39:59.635Z,25.56
2017-05-15T13:41:10.713Z,25.48
2017-05-15T13:42:21.724Z,25.41
2017-05-15T13:43:32.733Z,25.54
2017-05-15T13:44:43.754Z,25.74
2017-05-15T13:45:54.766Z,25.82
2017-05-15T13:47:05.836Z,25.79
2017-05-15T13:48:16.865Z,25.86
2017-05-15T13:49:27.886Z,25.94
2017-05-15T13:50:39.100Z,25.93
2017-05-15T13:51:50.322Z,26.01
2017-05-15T13:53:01.398Z,26.22
2017-05-15T13:54:12.426Z,26.17
2017-05-15T13:55:23.442Z,26.27
2017-05-15T13:56:34.525Z,26.47
2017-05-15T13:57:45.540Z,26.67
2017-05-15T13:58:56.609Z,26.87
2017-05-15T14:00:07.836Z,26.82
2017-05-15T14:01:18.864Z,26.87
2017-05-15T14:02:30.087Z,27
2017-05-15T14:03:41.104Z,26.99
2017-05-15T14:04:52.191Z,27.11
2017-05-15T14:06:03.225Z,27.09
2017-05-15T14:07:14.237Z,27.18
2017-05-15T14:08:25.669Z,27.26
2017-05-15T14:09:36.681Z,27.26
2017-05-15T14:10:47.701Z,27.33
2017-05-15T14:11:58.929Z,27.37
2017-05-15T14:13:09.969Z,27.24
2017-05-15T14:14:20.993Z,26.97
2017-05-15T14:15:32.049Z,26.89
2017-05-15T14:16:43.067Z,26.89
2017-05-15T14:17:54.097Z,26.84
2017-05-15T14:19:05.322Z,26.84
2017-05-15T14:20:16.338Z,26.76
2017-05-15T14:21:27.627Z,26.49
2017-05-15T14:22:38.652Z,26.53
2017-05-15T14:23:49.666Z,26.42
2017-05-15T14:25:00.688Z,26.45
2017-05-15T14:26:11.710Z,26.6
2017-05-15T14:27:22.786Z,26.71
2017-05-15T14:28:33.803Z,26.78
2017-05-15T14:29:44.829Z,26.99
2017-05-15T14:30:55.843Z,27.15
2017-05-15T14:32:06.857Z,27.19
2017-05-15T14:33:17.931Z,27.19
2017-05-15T14:34:28.955Z,27.12
2017-05-15T14:35:39.966Z,26.96
2017-05-15T14:36:50.994Z,26.9
2017-05-15T14:38:02.008Z,26.79
2017-05-15T14:39:13.078Z,26.68
2017-05-15T14:40:24.095Z,26.45
2017-05-15T14:41:35.114Z,26.17
2017-05-15T14:42:46.123Z,25.82
2017-05-15T14:43:57.135Z,25.69
2017-05-15T14:45:08.197Z,25.76
2017-05-15T14:46:19.213Z,25.75
2017-05-15T14:47:30.227Z,25.81
2017-05-15T14:48:41.243Z,25.69
2017-05-15T14:49:52.258Z,25.6
2017-05-15T14:51:03.286Z,25.47
2017-05-15T14:52:14.350Z,25.57
2017-05-15T14:53:25.571Z,25.75
2017-05-15T14:54:36.591Z,25.81
2017-05-15T14:55:47.658Z,25.75
2017-05-15T14:56:58.661Z,25.93
2017-05-15T14:58:09.670Z,25.93
2017-05-15T14:59:20.903Z,25.82
2017-05-15T15:00:31.918Z,25.93
2017-05-15T15:01:43.191Z,25.91
2017-05-15T15:02:54.232Z,25.86
2017-05-15T15:04:05.453Z,25.93
2017-05-15T15:05:16.468Z,25.85
2017-05-15T15:06:27.485Z,25.67
2017-05-15T15:07:38.551Z,25.81
2017-05-15T15:08:49.607Z,25.93
2017-05-15T15:10:00.675Z,25.81
2017-05-15T15:11:11.691Z,25.86
2017-05-15T15:12:22.696Z,25.88
2017-05-15T15:13:33.714Z,25.94
2017-05-15T15:14:44.933Z,25.93
2017-05-15T15:15:56.329Z,25.82
2017-05-15T15:17:07.376Z,25.71
2017-05-15T15:18:18.448Z,25.62